createdAt,value
2018-11-20T00:00:18.256Z,36.53
2018-11-20T00:03:18.218Z,39.10
2018-11-20T00:06:20.667Z,36.03
2018-11-20T00:09:14.588Z,32.60
2018-11-20T00:12:12.412Z,33.87
2018-11-20T00:15:11.622Z,33.30
2018-11-20T00:18:18.294Z,29.83
2018-11-20T00:21:24.946Z,32.23
2018-11-20T00:24:18.924Z,32.07
2018-11-20T00:27:17.984Z,32.40
2018-11-20T00:30:17.681Z,35.57
2018-11-20T00:33:19.801Z,34.90
2018-11-20T00:36:19.317Z,37.23
2018-11-20T00:39:19.095Z,35.33
2018-11-20T00:42:24.850Z,40.20
2018-11-20T00:45:23.958Z,35.57
2018-11-20T00:48:22.947Z,35.37
2018-11-20T00:51:28.534Z,38.27
2018-11-20T00:54:28.939Z,37.37
2018-11-20T00:57:28.046Z,37.77
2018-11-20T01:00:33.724Z,38.00
2018-11-20T01:03:19.820Z,35.10
2018-11-20T01:06:06.339Z,34.80
2018-11-20T01:08:47.760Z,33.10
2018-11-20T01:11:54.447Z,33.63
2018-11-20T01:15:01.141Z,28.50
2018-11-20T01:18:01.366Z,34.13
2018-11-20T01:21:00.965Z,30.97
2018-11-20T01:23:39.731Z,33.23
2018-11-20T01:29:53.380Z,35.73
2018-11-20T01:39:11.285Z,36.50
2018-11-20T01:42:04.354Z,32.00
2018-11-20T01:45:03.455Z,35.00
2018-11-20T01:48:03.341Z,32.03
2018-11-20T01:54:17.993Z,33.73
2018-11-20T01:57:17.299Z,34.83
2018-11-20T02:00:17.325Z,30.53
2018-11-20T02:03:16.979Z,36.13
2018-11-20T02:06:22.855Z,35.37
2018-11-20T02:09:22.456Z,36.03
2018-11-20T02:12:15.793Z,35.53
2018-11-20T02:18:13.031Z,34.60
2018-11-20T02:21:14.965Z,32.60
2018-11-20T02:24:02.065Z,34.50
2018-11-20T02:27:08.361Z,31.97
2018-11-20T02:30:14.641Z,35.20
2018-11-20T02:33:16.494Z,30.83
2018-11-20T02:36:10.196Z,35.40
2018-11-20T02:39:09.719Z,32.77
2018-11-20T02:42:15.322Z,33.33
2018-11-20T02:45:02.113Z,36.00
2018-11-20T02:48:08.449Z,35.20
2018-11-20T02:51:08.308Z,34.57
2018-11-20T02:54:00.521Z,34.20
2018-11-20T02:56:47.363Z,35.73
2018-11-20T02:59:46.661Z,35.50
2018-11-20T03:02:46.626Z,34.97
2018-11-20T03:05:46.077Z,31.83
2018-11-20T03:11:57.892Z,34.87
2018-11-20T03:14:57.660Z,32.70
2018-11-20T03:18:00.449Z,35.73
2018-11-20T03:21:03.333Z,35.00
2018-11-20T03:23:50.155Z,31.97
2018-11-20T03:26:56.546Z,34.27
2018-11-20T03:29:55.981Z,31.93
2018-11-20T03:32:58.382Z,31.97
2018-11-20T03:35:58.302Z,32.30
2018-11-20T03:38:56.202Z,31.50
2018-11-20T03:41:55.130Z,33.50
2018-11-20T03:44:59.936Z,32.57
2018-11-20T03:48:01.967Z,32.83
2018-11-20T03:51:01.639Z,31.67
2018-11-20T03:54:00.666Z,33.07
2018-11-20T03:57:00.372Z,32.93
2018-11-20T04:00:00.064Z,34.43
2018-11-20T04:02:59.071Z,35.03
2018-11-20T04:05:58.941Z,32.40
2018-11-20T04:08:58.544Z,32.00
2018-11-20T04:11:57.997Z,34.30
2018-11-20T04:14:57.708Z,29.87
2018-11-20T04:17:57.250Z,32.30
2018-11-20T04:20:57.025Z,33.57
2018-11-20T04:23:56.942Z,33.80
2018-11-20T04:26:51.450Z,32.80
2018-11-20T04:29:50.574Z,32.97
2018-11-20T04:32:37.330Z,33.47
2018-11-20T04:35:26.394Z,30.47
2018-11-20T04:38:33.076Z,35.93
2018-11-20T04:41:09.319Z,32.57
2018-11-20T04:43:56.059Z,33.07
2018-11-20T04:47:02.329Z,31.83
2018-11-20T04:49:57.258Z,30.33
2018-11-20T04:52:51.453Z,30.70
2018-11-20T04:55:45.027Z,44.53
2018-11-20T04:58:51.343Z,39.17
2018-11-20T05:01:50.971Z,34.43
2018-11-20T05:04:51.582Z,34.43
2018-11-20T05:07:50.603Z,35.77
2018-11-20T05:10:50.394Z,33.47
2018-11-20T05:13:49.651Z,34.87
2018-11-20T05:16:49.459Z,32.97
2018-11-20T05:19:49.145Z,32.20
2018-11-20T05:22:48.999Z,30.17
2018-11-20T05:25:48.668Z,39.80
2018-11-20T05:28:43.632Z,31.50
2018-11-20T05:31:37.910Z,31.20
2018-11-20T05:34:37.133Z,31.40
2018-11-20T05:37:36.954Z,33.27
2018-11-20T05:40:34.567Z,32.30
2018-11-20T05:43:33.262Z,34.23
2018-11-20T05:46:32.986Z,31.13
2018-11-20T05:49:25.453Z,39.90
2018-11-20T05:52:24.952Z,33.20
2018-11-20T05:55:24.720Z,31.70
2018-11-20T05:58:24.518Z,34.03
2018-11-20T06:01:24.235Z,31.17
2018-11-20T06:04:24.220Z,34.10
2018-11-20T06:07:15.621Z,34.03
2018-11-20T06:10:02.534Z,34.80
2018-11-20T06:12:49.471Z,32.70
2018-11-20T06:15:48.688Z,31.87
2018-11-20T06:18:55.141Z,33.23
2018-11-20T06:21:54.112Z,35.43
2018-11-20T06:24:53.566Z,33.23
2018-11-20T06:27:53.668Z,31.63
2018-11-20T06:30:41.867Z,30.27
2018-11-20T06:33:44.361Z,32.97
2018-11-20T06:42:43.703Z,36.40
2018-11-20T06:45:49.322Z,37.67
2018-11-20T06:48:51.107Z,34.90
2018-11-20T06:51:53.427Z,33.13
2018-11-20T06:54:53.302Z,33.47
2018-11-20T06:57:52.331Z,33.97
2018-11-20T07:00:51.840Z,34.77
2018-11-20T07:03:51.160Z,30.43
2018-11-20T07:06:50.800Z,32.80
2018-11-20T07:09:49.992Z,30.10
2018-11-20T07:12:49.813Z,30.07
2018-11-20T07:15:55.256Z,31.37
2018-11-20T07:18:54.610Z,31.50
2018-11-20T07:21:54.455Z,33.27
2018-11-20T07:24:53.499Z,31.50
2018-11-20T07:27:55.742Z,28.07
2018-11-20T07:31:00.977Z,29.97
2018-11-20T07:33:59.844Z,30.70
2018-11-20T07:36:59.870Z,28.73
2018-11-20T07:39:59.337Z,31.70
2018-11-20T07:42:59.222Z,29.93
2018-11-20T07:46:02.551Z,29.27
2018-11-20T07:49:08.825Z,32.43
2018-11-20T07:52:07.995Z,32.23
2018-11-20T07:55:07.657Z,29.07
2018-11-20T07:58:07.440Z,30.60
2018-11-20T08:01:10.297Z,32.67
2018-11-20T08:04:10.026Z,29.90
2018-11-20T08:07:09.964Z,36.27
2018-11-20T08:10:09.776Z,29.13
2018-11-20T08:13:09.692Z,27.33
2018-11-20T08:16:08.711Z,26.77
2018-11-20T08:19:03.776Z,25.97
2018-11-20T08:22:03.205Z,24.17
2018-11-20T08:25:02.229Z,26.97
2018-11-20T08:28:07.927Z,29.23
2018-11-20T08:31:07.864Z,26.00
2018-11-20T08:34:07.524Z,26.77
2018-11-20T08:37:06.541Z,27.43
2018-11-20T08:40:06.183Z,28.33
2018-11-20T08:43:05.322Z,29.27
2018-11-20T08:46:04.923Z,25.43
2018-11-20T08:48:48.600Z,29.13
2018-11-20T08:51:54.885Z,26.97
2018-11-20T08:55:01.157Z,26.63
2018-11-20T08:58:00.529Z,29.27
2018-11-20T09:00:59.760Z,26.10
2018-11-20T09:03:59.089Z,30.73
2018-11-20T09:06:50.876Z,28.03
2018-11-20T09:09:56.719Z,28.57
2018-11-20T09:12:56.420Z,29.67
2018-11-20T09:15:56.306Z,30.87
2018-11-20T09:19:02.428Z,31.20
2018-11-20T09:22:05.175Z,32.47
2018-11-20T09:25:04.985Z,31.90
2018-11-20T09:28:03.962Z,34.30
2018-11-20T09:30:50.771Z,30.00
2018-11-20T09:33:57.096Z,33.27
2018-11-20T09:36:56.734Z,32.53
2018-11-20T09:39:45.315Z,32.37
2018-11-20T09:42:52.128Z,34.80
2018-11-20T09:45:57.016Z,31.20
2018-11-20T09:48:56.215Z,31.23
2018-11-20T09:51:55.237Z,32.53
2018-11-20T09:54:54.724Z,34.07
2018-11-20T09:57:53.578Z,33.30
2018-11-20T10:00:53.454Z,37.33
2018-11-20T10:03:46.798Z,35.20
2018-11-20T10:06:52.046Z,35.03
2018-11-20T10:09:51.794Z,35.70
2018-11-20T10:12:54.407Z,33.30
2018-11-20T10:15:53.418Z,35.73
2018-11-20T10:18:52.459Z,36.17
2018-11-20T10:21:52.107Z,36.27
2018-11-20T10:24:52.046Z,35.50
2018-11-20T10:27:51.629Z,36.83
2018-11-20T10:30:51.442Z,37.20
2018-11-20T10:33:54.092Z,36.40
2018-11-20T10:36:59.683Z,34.63
2018-11-20T10:43:00.606Z,40.07
2018-11-20T10:45:59.714Z,34.17
2018-11-20T10:48:59.360Z,34.50
2018-11-20T10:51:58.382Z,37.27
2018-11-20T10:54:45.948Z,38.90
2018-11-20T10:57:52.235Z,35.83
2018-11-20T11:00:51.277Z,37.00
2018-11-20T11:03:50.289Z,33.00
2018-11-20T11:06:50.158Z,32.40
2018-11-20T11:09:38.373Z,33.87
2018-11-20T11:15:06.926Z,32.33
2018-11-20T11:18:13.240Z,32.37
2018-11-20T11:21:13.171Z,32.10
2018-11-20T11:24:12.973Z,30.23
2018-11-20T11:27:12.807Z,32.93
2018-11-20T11:30:12.739Z,31.67
2018-11-20T11:33:24.012Z,31.47
2018-11-20T11:36:17.390Z,29.80
2018-11-20T11:39:17.056Z,29.57
2018-11-20T11:42:16.795Z,29.43
2018-11-20T11:45:16.544Z,28.07
2018-11-20T11:48:15.541Z,29.57
2018-11-20T11:51:14.574Z,31.87
2018-11-20T11:54:14.380Z,29.33
2018-11-20T11:57:13.528Z,30.13
2018-11-20T12:00:00.399Z,29.10
2018-11-20T12:06:07.966Z,29.37
2018-11-20T12:09:07.477Z,29.27
2018-11-20T12:12:07.252Z,33.50
2018-11-20T12:15:07.263Z,31.03
2018-11-20T12:18:06.187Z,34.90
2018-11-20T12:21:05.872Z,31.97
2018-11-20T12:24:05.611Z,33.73
2018-11-20T12:27:05.380Z,35.70
2018-11-20T12:36:15.989Z,33.30
2018-11-20T12:39:15.729Z,31.90
2018-11-20T12:42:15.404Z,32.10
2018-11-20T12:45:15.580Z,34.47
2018-11-20T12:48:03.870Z,33.43
2018-11-20T12:51:09.112Z,32.40
2018-11-20T12:54:15.111Z,34.37
2018-11-20T12:57:13.931Z,30.30
2018-11-20T13:00:11.752Z,32.83
2018-11-20T13:06:09.443Z,31.80
2018-11-20T13:09:09.365Z,32.37
2018-11-20T13:12:08.991Z,32.27
2018-11-20T13:15:07.993Z,32.23
2018-11-20T13:18:09.136Z,32.07
2018-11-20T13:21:10.008Z,31.17
2018-11-20T13:24:09.616Z,31.40
2018-11-20T13:27:06.559Z,31.60
2018-11-20T13:30:07.989Z,32.17
2018-11-20T13:33:07.442Z,31.80
2018-11-20T13:36:07.437Z,30.13
2018-11-20T13:39:07.131Z,31.67
2018-11-20T13:42:01.986Z,32.17
2018-11-20T13:44:53.253Z,32.97
2018-11-20T13:47:52.814Z,31.60
2018-11-20T13:50:47.394Z,36.37
2018-11-20T13:53:53.696Z,33.37
2018-11-20T14:02:44.646Z,31.73
2018-11-20T14:05:49.744Z,32.53
2018-11-20T14:08:40.640Z,34.23
2018-11-20T14:11:36.392Z,35.73
2018-11-20T14:14:34.043Z,32.53
2018-11-20T14:17:33.986Z,32.43
2018-11-20T14:20:33.740Z,34.03
2018-11-20T14:23:32.670Z,34.27
2018-11-20T14:26:37.678Z,34.17
2018-11-20T14:29:36.659Z,34.03
2018-11-20T14:32:31.115Z,34.20
2018-11-20T14:35:36.987Z,36.17
2018-11-20T14:38:35.947Z,36.33
2018-11-20T14:41:35.526Z,35.17
2018-11-20T14:44:35.454Z,38.33
2018-11-20T14:47:35.345Z,37.50
2018-11-20T14:50:34.347Z,36.07
2018-11-20T14:53:37.049Z,38.17
2018-11-20T14:56:35.966Z,37.60
2018-11-20T14:59:34.841Z,35.17
2018-11-20T15:02:33.918Z,37.83
2018-11-20T15:05:39.950Z,38.07
2018-11-20T15:08:42.345Z,37.63
2018-11-20T15:11:29.382Z,36.87
2018-11-20T15:14:35.690Z,34.80
2018-11-20T15:17:37.525Z,36.00
2018-11-20T15:20:36.759Z,38.03
2018-11-20T15:23:33.407Z,37.77
2018-11-20T15:26:32.433Z,38.27
2018-11-20T15:29:32.433Z,39.70
2018-11-20T15:32:31.339Z,38.37
2018-11-20T15:35:37.419Z,36.33
2018-11-20T15:38:39.799Z,38.57
2018-11-20T15:41:44.593Z,41.13
2018-11-20T15:44:44.281Z,37.33
2018-11-20T15:47:43.413Z,39.37
2018-11-20T15:50:26.546Z,38.83
2018-11-20T15:53:26.054Z,41.77
2018-11-20T15:56:24.959Z,38.33
2018-11-20T15:59:24.666Z,39.93
2018-11-20T16:02:24.524Z,39.40
2018-11-20T16:05:24.275Z,43.57
2018-11-20T16:08:24.187Z,44.50
2018-11-20T16:11:27.373Z,46.63
2018-11-20T16:14:33.655Z,47.27
2018-11-20T16:17:19.230Z,43.80
2018-11-20T16:20:18.478Z,50.53
2018-11-20T16:23:18.321Z,46.07
2018-11-20T16:29:18.654Z,52.03
2018-11-20T16:32:18.125Z,53.00
2018-11-20T16:35:17.065Z,52.80
2018-11-20T16:38:17.040Z,65.13
2018-11-20T16:41:16.897Z,64.53
2018-11-20T16:44:16.588Z,57.70
2018-11-20T16:47:21.634Z,52.10
2018-11-20T16:50:21.502Z,54.80
2018-11-20T16:53:21.064Z,57.70
2018-11-20T16:56:20.312Z,64.03
2018-11-20T16:59:19.370Z,66.57
2018-11-20T17:05:18.349Z,55.83
2018-11-20T17:08:05.571Z,54.27
2018-11-20T17:11:09.325Z,56.53
2018-11-20T17:14:09.173Z,50.70
2018-11-20T17:17:08.059Z,52.87
2018-11-20T17:20:07.112Z,55.00
2018-11-20T17:23:08.317Z,51.97
2018-11-20T17:29:06.497Z,53.13
2018-11-20T17:32:06.350Z,57.30
2018-11-20T17:34:53.072Z,61.20
2018-11-20T17:37:59.383Z,52.53
2018-11-20T17:40:59.065Z,57.90
2018-11-20T17:43:58.255Z,58.17
2018-11-20T17:47:00.984Z,53.03
2018-11-20T17:53:02.073Z,60.27
2018-11-20T17:56:01.112Z,54.53
2018-11-20T17:59:00.882Z,54.10
2018-11-20T18:01:59.912Z,54.83
2018-11-20T18:08:11.843Z,55.07
2018-11-20T18:14:13.437Z,58.17
2018-11-20T18:17:19.958Z,70.10
2018-11-20T18:20:11.983Z,63.90
2018-11-20T18:23:11.864Z,63.70
2018-11-20T18:26:11.502Z,57.87
2018-11-20T18:29:16.851Z,57.77
2018-11-20T18:32:16.515Z,52.30
2018-11-20T18:35:16.310Z,61.27
2018-11-20T18:38:15.315Z,58.67
2018-11-20T18:41:15.027Z,56.47
2018-11-20T18:44:07.869Z,62.10
2018-11-20T18:47:12.488Z,55.63
2018-11-20T18:50:05.163Z,62.13
2018-11-20T18:52:57.807Z,54.30
2018-11-20T18:55:42.467Z,61.43
2018-11-20T18:58:38.262Z,60.77
2018-11-20T19:01:20.921Z,61.77
2018-11-20T19:04:20.151Z,60.27
2018-11-20T19:07:21.699Z,57.93
2018-11-20T19:10:17.451Z,56.27
2018-11-20T19:13:10.102Z,58.77
2018-11-20T19:15:55.239Z,54.90
2018-11-20T19:18:30.238Z,58.17
2018-11-20T19:21:26.647Z,55.13
2018-11-20T19:24:19.405Z,53.47
2018-11-20T19:27:03.982Z,51.97
2018-11-20T19:29:50.807Z,56.33
2018-11-20T19:32:40.494Z,50.47
2018-11-20T19:35:26.139Z,53.03
2018-11-20T19:38:24.722Z,47.17
2018-11-20T19:41:26.327Z,55.97
2018-11-20T19:44:11.621Z,57.67
2018-11-20T19:46:56.952Z,47.63
2018-11-20T19:49:49.950Z,51.87
2018-11-20T19:52:32.491Z,47.93
2018-11-20T19:55:17.948Z,54.47
2018-11-20T19:58:10.435Z,54.90
2018-11-20T20:01:12.700Z,48.77
2018-11-20T20:04:08.296Z,50.07
2018-11-20T20:07:13.452Z,52.10
2018-11-20T20:10:03.313Z,59.00
2018-11-20T20:12:48.545Z,57.10
2018-11-20T20:15:33.719Z,58.97
2018-11-20T20:18:20.560Z,60.07
2018-11-20T20:21:22.450Z,55.70
2018-11-20T20:24:07.629Z,51.03
2018-11-20T20:27:09.317Z,54.73
2018-11-20T20:29:56.232Z,50.40
2018-11-20T20:32:57.863Z,56.37
2018-11-20T20:35:47.562Z,49.33
2018-11-20T20:38:32.911Z,52.73
2018-11-20T20:41:22.310Z,55.87
2018-11-20T20:44:15.397Z,55.70
2018-11-20T20:47:00.454Z,52.87
2018-11-20T20:49:49.889Z,51.97
2018-11-20T20:52:28.237Z,54.43
2018-11-20T20:55:27.055Z,47.47
2018-11-20T20:58:13.915Z,44.67
2018-11-20T21:00:59.037Z,43.43
2018-11-20T21:03:43.495Z,43.63
2018-11-20T21:06:28.718Z,42.97
2018-11-20T21:09:13.806Z,44.27
2018-11-20T21:11:50.059Z,45.13
2018-11-20T21:14:33.379Z,39.50
2018-11-20T21:17:12.826Z,43.93
2018-11-20T21:19:59.710Z,42.73
2018-11-20T21:22:51.023Z,44.93
2018-11-20T21:25:49.859Z,43.10
2018-11-20T21:28:48.696Z,46.17
2018-11-20T21:31:33.824Z,38.07
2018-11-20T21:34:23.869Z,43.00
2018-11-20T21:37:25.494Z,43.37
2018-11-20T21:40:10.881Z,42.23
2018-11-20T21:43:00.326Z,41.40
2018-11-20T21:45:47.200Z,38.67
2018-11-20T21:48:37.168Z,39.57
2018-11-20T21:51:22.540Z,46.07
2018-11-20T21:54:07.543Z,41.43
2018-11-20T21:56:57.398Z,44.37
2018-11-20T21:59:48.771Z,46.57
2018-11-20T22:02:47.190Z,46.63
2018-11-20T22:05:38.645Z,45.53
2018-11-20T22:08:28.442Z,45.27
2018-11-20T22:11:34.740Z,46.63
2018-11-20T22:14:33.755Z,42.87
2018-11-20T22:17:33.524Z,44.73
2018-11-20T22:20:30.158Z,41.03
2018-11-20T22:23:29.289Z,42.47
2018-11-20T22:26:35.549Z,43.03
2018-11-20T22:29:40.699Z,44.83
2018-11-20T22:32:40.642Z,43.67
2018-11-20T22:35:41.515Z,41.17
2018-11-20T22:38:28.337Z,41.83
2018-11-20T22:41:34.589Z,45.30
2018-11-20T22:44:28.173Z,40.97
2018-11-20T22:47:33.404Z,41.53
2018-11-20T22:50:33.019Z,38.77
2018-11-20T22:53:32.480Z,42.57
2018-11-20T22:56:32.600Z,38.30
2018-11-20T22:59:37.992Z,39.20
2018-11-20T23:02:27.518Z,42.77
2018-11-20T23:05:26.694Z,43.03
2018-11-20T23:08:06.921Z,35.60
2018-11-20T23:10:46.592Z,37.63
2018-11-20T23:13:26.172Z,35.90
2018-11-20T23:16:05.722Z,35.97
2018-11-20T23:18:45.203Z,35.67
2018-11-20T23:21:24.818Z,35.10
2018-11-20T23:24:04.602Z,35.40
2018-11-20T23:26:44.863Z,33.73
2018-11-20T23:29:24.680Z,35.13
2018-11-20T23:35:04.231Z,34.13
2018-11-20T23:37:43.843Z,34.73
2018-11-20T23:40:23.526Z,35.80
2018-11-20T23:46:02.224Z,36.40
2018-11-20T23:48:41.843Z,34.03
2018-11-20T23:51:21.432Z,36.13
2018-11-20T23:54:01.246Z,35.40
2018-11-20T23:56:40.802Z,35.13
2018-11-20T23:59:20.924Z,33.80
